Dobrodošli na spletni strani vremenske postaje Senovo. Vse informacije so informativnega značaja, saj vremenska postaja ni del državne mreže meteoroloških postaj. AKTUALNIH OBVESTIL NI.


Sneg/Led Od: 21-02-2018 00:00 Do: 23-02-2018 23:59 Opozorilo za: Sneg/Led Stopnja: Rumena info button
Veter Od: 21-02-2018 00:00 Do: 22-02-2018 23:59 Opozorilo za: Veter Stopnja: Rumena info button

Pogled proti Armezu več informacij Pogled proti Armezu


Lisca več informacij Lisca


Radar strel več informacij blitzortung!


opozorilo za sneg/led več informacij rain snow radar


Obiščite še:

Template documentation
and downloads

And another site



Weather Underground, zgodovina - Tekstovno

Dnevni povzetek za Maj 12, 2017 Enote:  Metrično    Angleško   Obe
« Predhodni Dan
Naslednji Dan »
Dnevni Tedenski Mesečni Letni Po meri
  Višja: Nižja: Povprečje:
Temperatura: -17.8 °C -12.6 °C -7.9 °C
Točka rosišča: -17.8 °C -13.4 °C -11.9 °C
Vlažnost: Humidity % 42 % 66 %
Hitrost vetra: 0 km/h 0 km/h 5 km/h
Sunki vetra: 0 km/h - -
Veter:- - SW
Zračni tlak: 0 hPa 33992.1 hPa -
Padavine: 0 mm    
Historical Graphs
 
 
Tabelarni podarki za Maj 12, 2017
Čas Temperatura Točka rosišča Zračni tlak Veter Hitrost vetra Sunki vetra Vlažnost Intenziteta padavin (urna)
-17.8 °C -17.8 °C 0 hPa Calm     Humidity % 0 mm
00:01 -10.2 °C -12.2 °C 34063.2 hPa Calm     79 % 0 mm
00:06 -10.2 °C -12.1 °C 34063.2 hPa NW 1.6 km/h 7.6 km/h 80 % 0 mm
00:11 -10.2 °C -12.1 °C 34063.2 hPa NW 2.3 km/h 7.6 km/h 80 % 0 mm
00:16 -10.2 °C -12.1 °C 34063.2 hPa WNW 1.3 km/h 6.4 km/h 80 % 0 mm
00:21 -10.2 °C -12.2 °C 34063.2 hPa WSW 1.3 km/h 8 km/h 79 % 0 mm
00:26 -10.2 °C -12.1 °C 34063.2 hPa SW 1 km/h 8 km/h 80 % 0 mm
00:31 -10.2 °C -12.2 °C 34063.2 hPa NW 0.3 km/h 5.6 km/h 79 % 0 mm
00:36 -10.3 °C -12.2 °C 34063.2 hPa NW 0.5 km/h 4.2 km/h 80 % 0 mm
00:41 -10.3 °C -12.2 °C 34063.2 hPa NW 0.3 km/h 4.2 km/h 80 % 0 mm
00:46 -10.3 °C -12.2 °C 34063.2 hPa West 0.8 km/h 6.4 km/h 80 % 0 mm
00:51 -10.3 °C -12.2 °C 34063.2 hPa West 0.8 km/h 6.4 km/h 80 % 0 mm
00:56 -10.3 °C -12.1 °C 34063.2 hPa Calm     81 % 0 mm
01:01 -10.3 °C -12.2 °C 34063.2 hPa Calm     80 % 0 mm
01:06 -10.4 °C -12.2 °C 34063.2 hPa SW 0.3 km/h 5.1 km/h 81 % 0 mm
01:11 -10.4 °C -12.2 °C 34063.2 hPa SW 0.5 km/h 5.1 km/h 81 % 0 mm
01:16 -10.4 °C -12.2 °C 34063.2 hPa North 0.3 km/h   81 % 0 mm
01:21 -10.4 °C -12.1 °C 34063.2 hPa Calm     82 % 0 mm
01:26 -10.4 °C -12.1 °C 34063.2 hPa Calm     82 % 0 mm
01:31 -10.4 °C -12.1 °C 34063.2 hPa Calm     82 % 0 mm
01:36 -10.4 °C -12.1 °C 34063.2 hPa Calm     82 % 0 mm
01:41 -10.4 °C -11.9 °C 34063.2 hPa NNW 0.3 km/h 3.4 km/h 83 % 0 mm
01:46 -10.5 °C -12.1 °C 34029.3 hPa NNW 0.5 km/h 6.4 km/h 83 % 0 mm
01:51 -10.6 °C -12.2 °C 34029.3 hPa North 0.5 km/h 6.4 km/h 83 % 0 mm
01:56 -10.7 °C -12.2 °C 34029.3 hPa ESE 0.5 km/h 5.6 km/h 83 % 0 mm
02:01 -10.7 °C -12.3 °C 34029.3 hPa ESE 0.3 km/h 5.6 km/h 83 % 0 mm
02:06 -10.8 °C -12.3 °C 34029.3 hPa Calm     83 % 0 mm
02:11 -10.8 °C -12.3 °C 34029.3 hPa Calm     84 % 0 mm
02:16 -10.8 °C -12.3 °C 34029.3 hPa Calm     84 % 0 mm
02:21 -10.9 °C -12.3 °C 34029.3 hPa Calm     84 % 0 mm
02:26 -10.9 °C -12.3 °C 34029.3 hPa Calm     84 % 0 mm
02:31 -10.9 °C -12.4 °C 34029.3 hPa Calm     84 % 0 mm
02:36 -11.1 °C -12.5 °C 34029.3 hPa Calm     84 % 0 mm
02:41 -11.1 °C -12.4 °C 34029.3 hPa Calm     85 % 0 mm
02:46 -11.1 °C -12.4 °C 34029.3 hPa Calm     85 % 0 mm
02:51 -11.1 °C -12.4 °C 34029.3 hPa WNW 0.8 km/h 6.9 km/h 85 % 0 mm
02:56 -11.2 °C -12.4 °C 34029.3 hPa NW 1 km/h 6.9 km/h 86 % 0 mm
03:01 -11.2 °C -12.4 °C 34029.3 hPa NNW 0.5 km/h 3.4 km/h 86 % 0 mm
03:06 -11.2 °C -12.4 °C 34029.3 hPa Calm     86 % 0 mm
03:11 -11.2 °C -12.4 °C 34029.3 hPa Calm     86 % 0 mm
03:16 -11.3 °C -12.4 °C 34029.3 hPa South 0.3 km/h 3.4 km/h 87 % 0 mm
03:21 -11.3 °C -12.4 °C 34029.3 hPa South 0.3 km/h 3.4 km/h 87 % 0 mm
03:26 -11.3 °C -12.4 °C 34029.3 hPa Calm     87 % 0 mm
03:31 -11.3 °C -12.3 °C 34029.3 hPa Calm     88 % 0 mm
03:36 -11.3 °C -12.3 °C 34029.3 hPa NNW 0.8 km/h 4.2 km/h 88 % 0 mm
03:41 -11.3 °C -12.3 °C 34029.3 hPa NNW 0.5 km/h 4.2 km/h 88 % 0 mm
03:46 -11.3 °C -12.4 °C 34029.3 hPa Calm   2.9 km/h 88 % 0 mm
03:51 -11.3 °C -12.4 °C 34029.3 hPa Calm     88 % 0 mm
03:56 -11.3 °C -12.3 °C 34029.3 hPa Calm     89 % 0 mm
04:01 -11.3 °C -12.3 °C 34029.3 hPa Calm     89 % 0 mm
04:06 -11.3 °C -12.3 °C 34029.3 hPa Calm     89 % 0 mm
04:11 -11.4 °C -12.4 °C 34029.3 hPa Calm     89 % 0 mm
04:16 -11.4 °C -12.5 °C 34029.3 hPa Calm     88 % 0 mm
04:21 -11.6 °C -12.6 °C 34029.3 hPa Calm     89 % 0 mm
04:26 -11.6 °C -12.6 °C 34029.3 hPa Calm     89 % 0 mm
04:31 -11.7 °C -12.6 °C 34029.3 hPa Calm     89 % 0 mm
04:36 -11.7 °C -12.7 °C 34029.3 hPa Calm     89 % 0 mm
04:41 -11.8 °C -12.8 °C 34029.3 hPa Calm     89 % 0 mm
04:46 -11.9 °C -12.8 °C 34029.3 hPa Calm     89 % 0 mm
04:51 -11.9 °C -12.8 °C 34029.3 hPa Calm     90 % 0 mm
04:56 -12 °C -12.9 °C 34029.3 hPa Calm     90 % 0 mm
05:01 -12.1 °C -13 °C 34029.3 hPa Calm     89 % 0 mm
05:06 -12.1 °C -13.1 °C 34029.3 hPa Calm     89 % 0 mm
05:11 -12.2 °C -13.1 °C 34029.3 hPa Calm     89 % 0 mm
05:16 -12.2 °C -13.2 °C 34029.3 hPa Calm     89 % 0 mm
05:21 -12.3 °C -13.2 °C 34029.3 hPa Calm     89 % 0 mm
05:26 -12.3 °C -13.2 °C 34029.3 hPa WNW 1 km/h 5.6 km/h 90 % 0 mm
05:31 -12.4 °C -13.3 °C 34029.3 hPa WNW 1.3 km/h 5.6 km/h 90 % 0 mm
05:36 -12.4 °C -13.3 °C 34029.3 hPa Calm     90 % 0 mm
05:41 -12.4 °C -13.2 °C 34029.3 hPa Calm     91 % 0 mm
05:46 -12.5 °C -13.3 °C 33992.1 hPa Calm   3.4 km/h 91 % 0 mm
05:52 -12.6 °C -13.3 °C 33992.1 hPa NW 1 km/h 6.9 km/h 91 % 0 mm
05:57 -12.6 °C -13.3 °C 33992.1 hPa NW 2.9 km/h 6.9 km/h 91 % 0 mm
06:02 -12.6 °C -13.4 °C 34029.3 hPa NW 1.8 km/h 6.9 km/h 91 % 0 mm
06:07 -12.6 °C -13.4 °C 34029.3 hPa Calm   5.1 km/h 91 % 0 mm
06:12 -12.6 °C -13.2 °C 34029.3 hPa NW 0.8 km/h 5.1 km/h 92 % 0 mm
06:17 -12.6 °C -13.2 °C 34029.3 hPa NW 0.8 km/h 4.2 km/h 92 % 0 mm
06:22 -12.5 °C -13.2 °C 34029.3 hPa Calm     92 % 0 mm
06:27 -12.4 °C -13.1 °C 34029.3 hPa Calm     92 % 0 mm
06:32 -12.3 °C -12.9 °C 34029.3 hPa Calm     93 % 0 mm
06:37 -12.3 °C -12.9 °C 34029.3 hPa Calm     93 % 0 mm
06:42 -12.2 °C -12.8 °C 34029.3 hPa Calm     93 % 0 mm
06:47 -12.2 °C -12.8 °C 34029.3 hPa Calm     93 % 0 mm
06:52 -12.1 °C -12.7 °C 34029.3 hPa East 0.5 km/h 6.4 km/h 93 % 0 mm
06:57 -11.9 °C -12.5 °C 34029.3 hPa East 0.5 km/h 6.4 km/h 93 % 0 mm
07:02 -11.8 °C -12.4 °C 34029.3 hPa Calm     93 % 0 mm
07:07 -11.6 °C -12.2 °C 34029.3 hPa ENE 1 km/h 5.6 km/h 93 % 0 mm
07:12 -11.5 °C -12.1 °C 34029.3 hPa ENE 0.8 km/h 5.6 km/h 93 % 0 mm
07:17 -11.3 °C -11.9 °C 34029.3 hPa Calm   2.9 km/h 93 % 0 mm
07:22 -11.2 °C -11.7 °C 34029.3 hPa SE 0.3 km/h 3.4 km/h 94 % 0 mm
07:27 -11.1 °C -11.7 °C 34029.3 hPa SE 0.3 km/h 3.4 km/h 93 % 0 mm
07:32 -10.9 °C -11.6 °C 34029.3 hPa North 0.3 km/h   93 % 0 mm
07:37 -10.8 °C -11.4 °C 34029.3 hPa Calm     93 % 0 mm
07:42 -10.6 °C -11.3 °C 34029.3 hPa ESE 0.5 km/h 6.9 km/h 92 % 0 mm
07:47 -10.3 °C -11 °C 34029.3 hPa ESE 1.6 km/h 6.9 km/h 92 % 0 mm
07:52 -10.1 °C -10.9 °C 34029.3 hPa ENE 1.6 km/h 6.9 km/h 91 % 0 mm
07:57 -9.9 °C -10.8 °C 34029.3 hPa ENE 2.3 km/h 6.9 km/h 90 % 0 mm
08:02 -9.8 °C -10.8 °C 34029.3 hPa East 1.8 km/h 6.9 km/h 89 % 0 mm
08:07 -9.6 °C -10.7 °C 34029.3 hPa East 0.8 km/h 6.9 km/h 88 % 0 mm
08:12 -9.5 °C -10.7 °C 34029.3 hPa East 1.8 km/h 7.6 km/h 87 % 0 mm
08:18 -9.3 °C -10.6 °C 34063.2 hPa East 3.1 km/h 7.6 km/h 86 % 0 mm
08:22 -9.1 °C -10.5 °C 34063.2 hPa East 1.6 km/h 6.9 km/h 85 % 0 mm
08:27 -8.9 °C -10.4 °C 34063.2 hPa East 0.5 km/h 6.4 km/h 84 % 0 mm
08:33 -8.6 °C -10.2 °C 34063.2 hPa East 2.3 km/h 6.9 km/h 83 % 0 mm
08:38 -8.3 °C -10.2 °C 34063.2 hPa East 2.9 km/h 6.9 km/h 81 % 0 mm
08:43 -8.1 °C -9.9 °C 34063.2 hPa ESE 3.4 km/h 8.9 km/h 81 % 0 mm
08:48 -7.8 °C -9.8 °C 34029.3 hPa ESE 4.7 km/h 11.1 km/h 80 % 0 mm
08:53 -7.6 °C -9.7 °C 34029.3 hPa East 4.2 km/h 11.1 km/h 79 % 0 mm
08:58 -7.4 °C -9.6 °C 34029.3 hPa ENE 2.3 km/h 7.6 km/h 78 % 0 mm
09:03 -7.2 °C -9.5 °C 34029.3 hPa ENE 1.3 km/h 6.9 km/h 77 % 0 mm
09:08 -6.9 °C -9.5 °C 34029.3 hPa WNW 1.8 km/h 10.3 km/h 75 % 0 mm
09:13 -6.8 °C -9.7 °C 34029.3 hPa NW 4.2 km/h 10.3 km/h 72 % 0 mm
09:18 -6.7 °C -9.6 °C 34063.2 hPa West 5.6 km/h 10.3 km/h 72 % 0 mm
09:23 -6.7 °C -9.7 °C 34063.2 hPa WSW 6.9 km/h 14 km/h 71 % 0 mm
09:28 -6.5 °C -9.6 °C 34063.2 hPa West 6.4 km/h 14 km/h 70 % 0 mm
09:33 -6.5 °C -9.9 °C 34063.2 hPa WNW 6.4 km/h 16.3 km/h 68 % 0 mm
09:38 -6.3 °C -9.7 °C 34063.2 hPa West 6.4 km/h 16.3 km/h 68 % 0 mm
09:43 -6.2 °C -9.9 °C 34063.2 hPa SSW 5.1 km/h 12.7 km/h 66 % 0 mm
09:48 -6 °C -9.7 °C 34029.3 hPa SSW 6.8 km/h 16.3 km/h 66 % 0 mm
09:53 -5.9 °C -9.9 °C 34029.3 hPa SW 6.3 km/h 16.3 km/h 64 % 0 mm
09:58 -5.9 °C -10.1 °C 34029.3 hPa SW 6.3 km/h 16.3 km/h 63 % 0 mm
10:03 -5.8 °C -9.9 °C 34063.2 hPa SSW 9.8 km/h 19.6 km/h 63 % 0 mm
10:08 -5.7 °C -9.9 °C 34063.2 hPa SSW 10.1 km/h 19.6 km/h 62 % 0 mm
10:13 -5.7 °C -9.9 °C 34063.2 hPa West 6.9 km/h 19.6 km/h 62 % 0 mm
10:18 -5.8 °C -10.3 °C 34063.2 hPa North 6 km/h 11.1 km/h 60 % 0 mm
10:23 -5.8 °C -10.1 °C 34063.2 hPa West 8.2 km/h 26.2 km/h 62 % 0 mm
10:28 -5.8 °C -10.1 °C 34063.2 hPa WSW 9 km/h 26.2 km/h 62 % 0 mm
10:33 -5.8 °C -10.4 °C 34029.3 hPa WSW 9 km/h 32.3 km/h 59 % 0 mm
10:38 -5.6 °C -9.9 °C 34029.3 hPa WSW 10.9 km/h 32.3 km/h 61 % 0 mm
10:43 -5.4 °C -10.1 °C 34029.3 hPa SSW 11.1 km/h 24.8 km/h 59 % 0 mm
10:48 -5.3 °C -9.9 °C 34029.3 hPa SSW 10.6 km/h 25.4 km/h 59 % 0 mm
10:53 -5.2 °C -10 °C 34029.3 hPa SSW 11.4 km/h 25.4 km/h 58 % 0 mm
10:58 -5.1 °C -10.2 °C 34029.3 hPa SW 13.7 km/h 24.8 km/h 56 % 0 mm
11:03 -4.9 °C -10.4 °C 34063.2 hPa SSW 14 km/h 24.8 km/h 54 % 0 mm
11:08 -4.8 °C -10.3 °C 34063.2 hPa South 14.8 km/h 31.4 km/h 54 % 0 mm
11:13 -4.8 °C -10.6 °C 34063.2 hPa SSW 16.3 km/h 31.4 km/h 52 % 0 mm
11:18 -4.7 °C -10.7 °C 34063.2 hPa SW 16.9 km/h 31.9 km/h 51 % 0 mm
11:23 -4.8 °C -11.1 °C 34063.2 hPa SW 18.7 km/h 33.6 km/h 49 % 0 mm
11:28 -4.7 °C -10.8 °C 34063.2 hPa SSW 17.9 km/h 33.6 km/h 50 % 0 mm
11:33 -4.6 °C -10.5 °C 34063.2 hPa SW 14.8 km/h 27.2 km/h 51 % 0 mm
11:38 -4.4 °C -10.8 °C 34063.2 hPa SW 12.7 km/h 27.2 km/h 49 % 0 mm
11:43 -4.4 °C -10.7 °C 34063.2 hPa SW 12.2 km/h 27.2 km/h 49 % 0 mm
11:48 -4.3 °C -10.6 °C 34063.2 hPa SSW 14.8 km/h 28.5 km/h 49 % 0 mm
11:53 -4.4 °C -10.9 °C 34063.2 hPa SSW 12.2 km/h 28.5 km/h 48 % 0 mm
11:58 -4.3 °C -10.7 °C 34063.2 hPa WSW 8.9 km/h 19.6 km/h 49 % 0 mm
12:03 -4.3 °C -10.8 °C 34063.2 hPa SW 10.9 km/h 22.5 km/h 48 % 0 mm
12:08 -4.4 °C -11.1 °C 34063.2 hPa SW 13.5 km/h 24.8 km/h 47 % 0 mm
12:13 -4.5 °C -11.2 °C 34063.2 hPa SW 15 km/h 24.8 km/h 47 % 0 mm
12:18 -4.7 °C -11.3 °C 34063.2 hPa SW 14.5 km/h 22.5 km/h 47 % 0 mm
12:23 -4.7 °C -11.3 °C 34063.2 hPa SW 12.7 km/h 22.5 km/h 47 % 0 mm
12:28 -4.8 °C -11.3 °C 34063.2 hPa WSW 10.9 km/h 18.7 km/h 48 % 0 mm
12:33 -5.1 °C -11.3 °C 34063.2 hPa WSW 8 km/h 12.2 km/h 49 % 0 mm
12:38 -5.2 °C -11.4 °C 34063.2 hPa WNW 6 km/h 10.3 km/h 49 % 0 mm
12:43 -5.2 °C -11.5 °C 34063.2 hPa West 6.9 km/h 14 km/h 49 % 0 mm
12:48 -5 °C -11.1 °C 34063.2 hPa SSW 7.2 km/h 14 km/h 50 % 0 mm
12:53 -4.8 °C -11.1 °C 34063.2 hPa SSW 8.9 km/h 22 km/h 49 % 0 mm
12:58 -4.9 °C -11.2 °C 34063.2 hPa SW 10.9 km/h 22 km/h 49 % 0 mm
13:03 -5.1 °C -11.2 °C 34063.2 hPa SW 9.8 km/h 19.6 km/h 50 % 0 mm
13:08 -5.1 °C -11.4 °C 34063.2 hPa SW 7.7 km/h 19.6 km/h 49 % 0 mm
13:13 -4.9 °C -11.1 °C 34063.2 hPa SW 8.2 km/h 19.6 km/h 50 % 0 mm
13:18 -4.7 °C -10.8 °C 34063.2 hPa South 8.5 km/h 16.9 km/h 50 % 0 mm
13:23 -4.6 °C -10.7 °C 34063.2 hPa SW 9.7 km/h 18.7 km/h 50 % 0 mm
13:28 -4.6 °C -10.9 °C 34063.2 hPa SW 10.1 km/h 20.9 km/h 49 % 0 mm
13:33 -4.7 °C -11.3 °C 34063.2 hPa WSW 11.6 km/h 20.9 km/h 47 % 0 mm
13:38 -4.5 °C -11.2 °C 34063.2 hPa WSW 14 km/h 24.8 km/h 47 % 0 mm
13:43 -4.3 °C -11.2 °C 34063.2 hPa SW 17.5 km/h 41.2 km/h 46 % 0 mm
13:48 -4.2 °C -11.2 °C 34063.2 hPa SW 18.2 km/h 41.2 km/h 45 % 0 mm
13:53 -4.1 °C -11.3 °C 34063.2 hPa SW 14 km/h 33.6 km/h 44 % 0 mm
13:58 -4.2 °C -11.5 °C 34063.2 hPa SW 15.3 km/h 34.1 km/h 44 % 0 mm
14:03 -4.2 °C -11.4 °C 34029.3 hPa SW 17.5 km/h 34.1 km/h 44 % 0 mm
14:08 -4.2 °C -11.4 °C 34029.3 hPa SSW 16.9 km/h 33.6 km/h 44 % 0 mm
14:13 -4 °C -11.3 °C 34029.3 hPa SW 16.3 km/h 37 km/h 44 % 0 mm
14:18 -3.9 °C -11.3 °C 34029.3 hPa SW 16.1 km/h 37 km/h 43 % 0 mm
14:23 -3.8 °C -11.1 °C 34029.3 hPa WSW 13.5 km/h 28.5 km/h 44 % 0 mm
14:29 -3.7 °C -11.4 °C 34029.3 hPa SW 14.2 km/h 37 km/h 42 % 0 mm
14:33 -3.7 °C -11.2 °C 34063.2 hPa SW 19.5 km/h 37 km/h 43 % 0 mm
14:39 -3.6 °C -11.3 °C 34063.2 hPa SW 17.4 km/h 28.5 km/h 42 % 0 mm
14:43 -3.8 °C -11.4 °C 34063.2 hPa SSW 16.3 km/h 31.9 km/h 42 % 0 mm
14:49 -4.1 °C -11.6 °C 34063.2 hPa SSW 15.6 km/h 31.9 km/h 43 % 0 mm
14:53 -4.3 °C -11.9 °C 34063.2 hPa SW 11.4 km/h 27.7 km/h 42 % 0 mm
14:59 -4.4 °C -12.1 °C 34063.2 hPa SW 10.9 km/h 22.5 km/h 42 % 0 mm
15:03 -4.5 °C -11.9 °C 34029.3 hPa SSW 9.8 km/h 27.7 km/h 43 % 0 mm
15:08 -4.6 °C -12 °C 34029.3 hPa SSW 11.1 km/h 27.7 km/h 43 % 0 mm
15:14 -4.6 °C -12 °C 34029.3 hPa SW 14 km/h 26.2 km/h 43 % 0 mm
15:19 -4.6 °C -12 °C 34029.3 hPa SW 12.4 km/h 23 km/h 43 % 0 mm
15:24 -4.5 °C -11.7 °C 34029.3 hPa SW 11.4 km/h 19.2 km/h 44 % 0 mm
15:29 -4.5 °C -11.7 °C 34029.3 hPa SW 11.9 km/h 24.8 km/h 44 % 0 mm
15:34 -4.6 °C -11.8 °C 34029.3 hPa SW 12.2 km/h 24.8 km/h 44 % 0 mm
15:39 -4.7 °C -11.9 °C 34029.3 hPa SW 11.9 km/h 26.2 km/h 44 % 0 mm
15:44 -4.6 °C -11.8 °C 34029.3 hPa SW 12.7 km/h 28.5 km/h 44 % 0 mm
15:49 -4.6 °C -11.8 °C 34029.3 hPa WSW 14.5 km/h 28.5 km/h 44 % 0 mm
15:54 -4.6 °C -11.8 °C 34029.3 hPa SW 13.2 km/h 27.2 km/h 44 % 0 mm
15:59 -4.7 °C -11.9 °C 34029.3 hPa SW 10.6 km/h 27.2 km/h 44 % 0 mm
16:04 -4.7 °C -11.9 °C 34029.3 hPa SW 9.3 km/h 16.9 km/h 44 % 0 mm
16:09 -4.8 °C -12.1 °C 34029.3 hPa SW 10.9 km/h 19.6 km/h 44 % 0 mm
16:14 -4.9 °C -12.1 °C 34063.2 hPa SW 13.7 km/h 19.6 km/h 44 % 0 mm
16:19 -5 °C -12.2 °C 34063.2 hPa SW 13.7 km/h 20.9 km/h 44 % 0 mm
16:24 -5 °C -12.2 °C 34063.2 hPa SW 12.4 km/h 20.9 km/h 44 % 0 mm
16:29 -5.1 °C -12.1 °C 34029.3 hPa SW 9 km/h 19.2 km/h 45 % 0 mm
16:34 -5.1 °C -12.1 °C 34029.3 hPa SW 6.3 km/h 19.6 km/h 45 % 0 mm
16:39 -5.1 °C -12.1 °C 34029.3 hPa SSW 6.8 km/h 19.6 km/h 45 % 0 mm
16:44 -5.1 °C -12.1 °C 34029.3 hPa SW 7.6 km/h 14.5 km/h 45 % 0 mm
16:49 -5.2 °C -12.1 °C 34029.3 hPa SW 5.5 km/h 14.5 km/h 45 % 0 mm
16:54 -5 °C -12 °C 34029.3 hPa SW 4.7 km/h 11.1 km/h 45 % 0 mm
17:00 -4.9 °C -11.9 °C 34029.3 hPa SSW 8.5 km/h 22 km/h 45 % 0 mm
17:05 -5.1 °C -12.1 °C 34029.3 hPa SSW 12.9 km/h 25.4 km/h 45 % 0 mm
17:10 -5.2 °C -11.9 °C 34029.3 hPa SSW 12.7 km/h 25.4 km/h 46 % 0 mm
17:15 -5.2 °C -12 °C 34029.3 hPa SW 10.3 km/h 16.3 km/h 46 % 0 mm
17:20 -5.3 °C -12.1 °C 34029.3 hPa SW 9 km/h 16.9 km/h 46 % 0 mm
17:25 -5.4 °C -12 °C 34029.3 hPa SSW 7.7 km/h 16.9 km/h 47 % 0 mm
17:30 -5.4 °C -12.1 °C 34029.3 hPa SSW 5 km/h 9.3 km/h 47 % 0 mm
17:32 -5.5 °C -12.1 °C 34029.3 hPa SE 3.9 km/h 7.6 km/h 47 % 0 mm
17:37 -5.6 °C -11.9 °C 34029.3 hPa ENE 1.8 km/h 7.6 km/h 48 % 0 mm
17:42 -5.6 °C -12 °C 34029.3 hPa SE 1.6 km/h 6.4 km/h 48 % 0 mm
17:47 -5.6 °C -11.8 °C 34029.3 hPa SW 2.9 km/h 22.5 km/h 49 % 0 mm
17:52 -5.4 °C -11.6 °C 34029.3 hPa WSW 5.6 km/h 22.5 km/h 49 % 0 mm
17:57 -5.3 °C -11.4 °C 34029.3 hPa SW 7.6 km/h 12.2 km/h 50 % 0 mm
18:02 -5.3 °C -11.6 °C 34029.3 hPa WSW 8.5 km/h 15 km/h 49 % 0 mm
18:07 -5.4 °C -11.6 °C 34029.3 hPa WSW 10.1 km/h 19.6 km/h 49 % 0 mm
18:12 -5.4 °C -11.8 °C 34029.3 hPa West 9.7 km/h 19.6 km/h 48 % 0 mm
18:17 -5.5 °C -11.9 °C 34029.3 hPa WNW 8.5 km/h 22.5 km/h 48 % 0 mm
18:22 -5.6 °C -12.2 °C 34029.3 hPa West 10.1 km/h 26.2 km/h 47 % 0 mm
18:27 -5.7 °C -12.1 °C 34029.3 hPa WSW 8.2 km/h 26.2 km/h 48 % 0 mm
18:32 -5.7 °C -12.1 °C 34029.3 hPa SSW 5.5 km/h 22 km/h 48 % 0 mm
18:37 -5.7 °C -12.1 °C 34029.3 hPa SSW 6.9 km/h 22 km/h 48 % 0 mm
18:42 -5.7 °C -12.1 °C 34029.3 hPa SSW 9 km/h 14.5 km/h 48 % 0 mm
18:47 -5.8 °C -12.2 °C 34029.3 hPa SW 8.5 km/h 14 km/h 48 % 0 mm
18:52 -5.8 °C -12.4 °C 34029.3 hPa SW 4.2 km/h 8.9 km/h 47 % 0 mm
18:57 -5.9 °C -12.3 °C 34029.3 hPa WNW 1.6 km/h 4.2 km/h 48 % 0 mm
19:02 -5.9 °C -12.3 °C 34029.3 hPa North 1.3 km/h   48 % 0 mm
19:07 -6 °C -12.4 °C 34029.3 hPa North 2.3 km/h   48 % 0 mm
19:12 -6.1 °C -12.4 °C 34029.3 hPa West 2.6 km/h 3.4 km/h 48 % 0 mm
19:17 -6.1 °C -12.4 °C 34063.2 hPa WNW 3.7 km/h 7.6 km/h 48 % 0 mm
19:22 -6.2 °C -12.6 °C 34063.2 hPa WNW 5 km/h 7.6 km/h 48 % 0 mm
19:27 -6.3 °C -12.8 °C 34063.2 hPa WNW 10.1 km/h 20.3 km/h 47 % 0 mm
19:32 -6.3 °C -12.8 °C 34063.2 hPa WNW 7.2 km/h 20.3 km/h 47 % 0 mm
19:37 -6.3 °C -12.8 °C 34063.2 hPa WSW 4.3 km/h 12.2 km/h 47 % 0 mm
19:42 -6.4 °C -12.9 °C 34063.2 hPa SSW 6.3 km/h 12.2 km/h 47 % 0 mm
19:47 -6.4 °C -12.9 °C 34097 hPa SSW 6 km/h 16.9 km/h 47 % 0 mm
19:52 -6.4 °C -12.9 °C 34097 hPa WSW 4.2 km/h 16.9 km/h 47 % 0 mm
19:53 -6.5 °C -13 °C 34097 hPa WSW 3.9 km/h 16.9 km/h 47 % 0 mm
19:58 -6.6 °C -13.1 °C 34097 hPa SW 4.7 km/h 10.3 km/h 47 % 0 mm
20:03 -6.6 °C -13.1 °C 34063.2 hPa SW 5.1 km/h 10.3 km/h 47 % 0 mm
20:08 -6.7 °C -13.2 °C 34063.2 hPa SW 4.3 km/h 9.8 km/h 47 % 0 mm
20:13 -6.7 °C -13.2 °C 34063.2 hPa WSW 4.7 km/h 9.8 km/h 47 % 0 mm
20:18 -6.7 °C -13 °C 34063.2 hPa SW 5.1 km/h 5.1 km/h 48 % 0 mm
20:23 -6.8 °C -13.1 °C 34063.2 hPa SW 5.1 km/h 5.1 km/h 48 % 0 mm
20:28 -6.9 °C -13.2 °C 34063.2 hPa SW 1 km/h 4.2 km/h 48 % 0 mm
20:33 -6.9 °C -13.2 °C 34029.3 hPa West 2.1 km/h 9.3 km/h 48 % 0 mm
20:38 -7 °C -13.3 °C 34029.3 hPa SW 2.1 km/h 9.3 km/h 48 % 0 mm
20:43 -7.1 °C -13.2 °C 34029.3 hPa SW 2.1 km/h 8 km/h 49 % 0 mm
20:48 -7.1 °C -13.2 °C 34063.2 hPa SW 1.8 km/h 6.9 km/h 49 % 0 mm
20:53 -7.2 °C -13.3 °C 34063.2 hPa SSW 0.8 km/h 6.9 km/h 49 % 0 mm
20:58 -7.3 °C -13.1 °C 34063.2 hPa West 0.5 km/h 6.4 km/h 51 % 0 mm
21:03 -7.4 °C -13 °C 34063.2 hPa WNW 2.6 km/h 12.7 km/h 52 % 0 mm
21:08 -7.6 °C -13 °C 34063.2 hPa WNW 3.9 km/h 12.7 km/h 53 % 0 mm
21:13 -7.8 °C -13 °C 34063.2 hPa NW 3.1 km/h 7.6 km/h 54 % 0 mm
21:18 -7.9 °C -12.8 °C 34063.2 hPa WNW 3.1 km/h 6.9 km/h 56 % 0 mm
21:23 -8 °C -12.8 °C 34063.2 hPa NW 5.1 km/h 8.9 km/h 57 % 0 mm
21:24 -8 °C -12.7 °C 34063.2 hPa NW 5 km/h 8.9 km/h 58 % 0 mm
21:29 -8.1 °C -12.7 °C 34097 hPa NNW 4.2 km/h 8.9 km/h 58 % 0 mm
21:34 -8.2 °C -12.7 °C 34097 hPa NNW 1.6 km/h 7.6 km/h 59 % 0 mm
21:39 -8.3 °C -12.6 °C 34097 hPa NW 0.3 km/h 5.1 km/h 60 % 0 mm
21:44 -8.4 °C -12.6 °C 34130.9 hPa Calm   4.2 km/h 61 % 0 mm
21:49 -8.4 °C -12.3 °C 34130.9 hPa Calm     64 % 0 mm
21:54 -8.6 °C -12.3 °C 34130.9 hPa WNW 0.3 km/h 5.1 km/h 64 % 0 mm
21:59 -8.6 °C -12.3 °C 34130.9 hPa NW 0.3 km/h 5.1 km/h 65 % 0 mm
22:04 -8.7 °C -12.4 °C 34130.9 hPa Calm   3.4 km/h 65 % 0 mm
22:09 -8.7 °C -12.3 °C 34130.9 hPa NW 1.3 km/h 9.3 km/h 66 % 0 mm
22:14 -8.8 °C -12.3 °C 34130.9 hPa NW 1.3 km/h 9.3 km/h 67 % 0 mm
22:19 -8.8 °C -12.3 °C 34130.9 hPa NW 2.1 km/h 8.9 km/h 67 % 0 mm
22:24 -8.9 °C -12.1 °C 34130.9 hPa NW 3.7 km/h 8.9 km/h 69 % 0 mm
22:29 -9 °C -12.1 °C 34130.9 hPa NW 1.3 km/h 8 km/h 70 % 0 mm
22:34 -9 °C -12.1 °C 34130.9 hPa Calm     70 % 0 mm
22:39 -9.1 °C -12.1 °C 34130.9 hPa Calm     70 % 0 mm
22:44 -9.1 °C -12.1 °C 34097 hPa Calm     71 % 0 mm
22:49 -9.2 °C -12.1 °C 34097 hPa Calm     71 % 0 mm
22:54 -9.2 °C -12.1 °C 34097 hPa Calm   3.4 km/h 71 % 0 mm
22:59 -9.2 °C -12 °C 34097 hPa Calm   3.4 km/h 72 % 0 mm
23:04 -9.2 °C -12 °C 34097 hPa Calm     72 % 0 mm
23:09 -9.3 °C -11.9 °C 34097 hPa Calm     73 % 0 mm
23:14 -9.3 °C -12 °C 34097 hPa Calm     73 % 0 mm
23:19 -9.3 °C -12 °C 34097 hPa WNW 0.8 km/h 10.3 km/h 73 % 0 mm
23:24 -9.4 °C -11.9 °C 34097 hPa WNW 0.8 km/h 10.3 km/h 74 % 0 mm
23:29 -9.4 °C -11.9 °C 34130.9 hPa Calm     74 % 0 mm
23:34 -9.4 °C -12 °C 34130.9 hPa Calm   6.9 km/h 74 % 0 mm
23:39 -9.4 °C -11.9 °C 34130.9 hPa NW 1.8 km/h 7.6 km/h 75 % 0 mm
23:44 -9.5 °C -11.8 °C 34097 hPa NW 1.8 km/h 7.6 km/h 76 % 0 mm
23:49 -9.6 °C -11.9 °C 34097 hPa NW 2.1 km/h 8 km/h 76 % 0 mm
23:54 -9.6 °C -11.8 °C 34097 hPa NW 4.7 km/h 8.9 km/h 77 % 0 mm
23:59 -9.6 °C -11.8 °C 34097 hPa NW 3.1 km/h 8.9 km/h 77 % 0 mm
Vremenska postaja Senovo
Podatki zbrani iz Weather Underground - 3 mb

Script developed by  Jim McMurry - jmcmurry@mwt.net Adapted for the template by  Wim van der Kuil - Leuven-Template.eu

Vremenski podatki so objavljeni na:

European Weather Network

WeatherCloud

Weather Underground

AWEKAS

HAMweather, WeatherForYou, PWS Weather

MapView

Geostik

Slovenia weather network

Oprema, ki se uporablja:

Vremenski program
Cumulus

Vremenski server
Asus

Cumulus

Asus